Chatham, MI

4:16 AM EST on November 26, 2014 (GMT -0500)
Schoolcraft County | Change Station
CLOSE
Current Station
Airport
Location: Manistique,
Elevation: 686 ft
Nearby Weather Stations
Active Advisory: Lake Effect Snow Advisory Active Notice: Record Report

Elev 686 ft 45.97 °N, 86.17 °W | Updated 21 minutes ago

Partly Cloudy
Partly Cloudy
14 °F
Feels Like 14 °F
N
0
Wind Variable Wind from North

Today
High -- | Low -- °F
--% Chance of Precip.
Yesterday
High -- | Low -- °F
Precip. -- in
8:03 AM 5:05 PM
Waxing Crescent, 18% visible
Pressure 30.16 in
Visibility 10.0 miles
Clouds Overcast 3200 ft
Dew Point 12 °F
Humidity 93%
Rainfall 0.00 in
Snow Depth Not available.
UV 0 out of 12
Pollen .10 out of 12
Air Quality Not available.
Flu Activity Not available.
METAR KISQ 260855Z AUTO 00000KT 10SM OVC032 M10/M11 A3016 RMK AO2 T11021111

More Conditions Fewer Conditions

Pressure 30.16 in
Visibility 10.0 miles
Clouds Overcast 3200 ft
Dew Point 12 °F
Humidity 93%
Rainfall 0.00 in
Snow Depth Not available.
UV 0 out of 12
Pollen .10 out of 12
Air Quality Not available.
Flu Activity Not available.
METAR KISQ 260855Z AUTO 00000KT 10SM OVC032 M10/M11 A3016 RMK AO2 T11021111

More Conditions Fewer Conditions

10-Day Weather Forecast

Almanac

Astronomy

Nov. 26, 2014 Rise Set
Actual Time
Civil Twilight
Nautical Twilight
Astronomical Twilight
Moon
Length of Visible Light
Length of Day
Tomorrow will be .
, % of the Moon is Illuminated

Today's Extremes

State Highs State Lows

Community

WunderPhotos

Upload Photos

1,773,701 photos uploaded!

WunderBlogs® & News

Nearby

Air Quality

  Air Quality AQ Index Pollutant
Not available.

Snow Depth

Station Depth Elevation

Earthquake Activity

City Distance Mag. Time & Date
Minimum magnitude displayed is 2.5.

Coastal Water Temperatures

Place Temperature

Nearby Weather Stations